createdAt,value
2023-05-19T00:01:19.601Z,102927.44
2023-05-19T00:03:54.343Z,102934.50
2023-05-19T00:06:26.832Z,102926.34
2023-05-19T00:09:04.936Z,102936.91
2023-05-19T00:11:31.829Z,102934.00
2023-05-19T00:14:00.173Z,102928.91
2023-05-19T00:16:28.051Z,102923.00
2023-05-19T00:18:54.750Z,102922.38
2023-05-19T00:21:21.324Z,102917.09
2023-05-19T00:23:47.890Z,102912.84
2023-05-19T00:26:14.419Z,102907.94
2023-05-19T00:28:41.001Z,102915.53
2023-05-19T00:31:08.014Z,102910.97
2023-05-19T00:33:34.605Z,102912.53
2023-05-19T00:36:05.744Z,102911.09
2023-05-19T00:38:33.857Z,102912.75
2023-05-19T00:41:01.832Z,102903.06
2023-05-19T00:43:30.083Z,102906.19
2023-05-19T00:45:57.595Z,102909.81
2023-05-19T00:48:25.717Z,102915.59
2023-05-19T00:50:55.022Z,102917.56
2023-05-19T00:53:23.333Z,102908.88
2023-05-19T00:55:50.537Z,102907.25
2023-05-19T00:58:17.782Z,102900.03
2023-05-19T01:00:44.475Z,102902.69
2023-05-19T01:03:11.784Z,102903.66
2023-05-19T01:05:44.821Z,102905.38
2023-05-19T01:08:11.882Z,102907.53
2023-05-19T01:10:38.428Z,102906.06
2023-05-19T01:13:06.132Z,102909.03
2023-05-19T01:16:12.666Z,102904.78
2023-05-19T01:19:01.848Z,102913.47
2023-05-19T01:22:13.308Z,102908.03
2023-05-19T01:24:53.461Z,102906.06
2023-05-19T01:27:41.198Z,102908.69
2023-05-19T01:30:27.328Z,102907.22
2023-05-19T01:32:58.338Z,102898.22
2023-05-19T01:35:26.205Z,102900.19
2023-05-19T01:37:56.822Z,102889.69
2023-05-19T01:40:24.920Z,102887.75
2023-05-19T01:42:57.396Z,102894.34
2023-05-19T01:45:27.982Z,102892.69
2023-05-19T01:47:56.981Z,102887.44
2023-05-19T01:50:23.700Z,102894.72
2023-05-19T01:52:50.467Z,102894.72
2023-05-19T01:55:17.172Z,102894.75
2023-05-19T01:58:02.519Z,102891.47
2023-05-19T02:00:38.218Z,102882.94
2023-05-19T02:03:07.827Z,102884.75
2023-05-19T02:05:59.284Z,102878.38
2023-05-19T02:08:30.430Z,102878.72
2023-05-19T02:11:09.681Z,102881.34
2023-05-19T02:13:42.156Z,102880.00
2023-05-19T02:16:10.868Z,102885.59
2023-05-19T02:18:37.554Z,102885.78
2023-05-19T02:21:04.348Z,102882.50
2023-05-19T02:23:31.284Z,102881.03
2023-05-19T02:25:57.842Z,102875.28
2023-05-19T02:28:28.290Z,102871.84
2023-05-19T02:30:54.917Z,102877.00
2023-05-19T02:33:24.575Z,102872.91
2023-05-19T02:35:51.326Z,102867.34
2023-05-19T02:38:18.096Z,102865.19
2023-05-19T02:40:44.752Z,102858.66
2023-05-19T02:43:11.458Z,102861.44
2023-05-19T02:45:38.050Z,102860.78
2023-05-19T02:48:04.925Z,102860.47
2023-05-19T02:50:31.695Z,102853.59
2023-05-19T02:52:58.366Z,102853.25
2023-05-19T02:55:24.940Z,102856.19
2023-05-19T02:57:51.504Z,102859.78
2023-05-19T03:00:18.186Z,102847.66
2023-05-19T03:02:44.923Z,102847.66
2023-05-19T03:05:11.719Z,102849.63
2023-05-19T03:07:38.277Z,102840.94
2023-05-19T03:10:06.636Z,102839.81
2023-05-19T03:12:33.633Z,102844.41
2023-05-19T03:15:00.742Z,102842.28
2023-05-19T03:17:28.725Z,102843.09
2023-05-19T03:19:56.028Z,102845.72
2023-05-19T03:22:22.586Z,102856.22
2023-05-19T03:24:51.081Z,102846.69
2023-05-19T03:27:17.640Z,102848.19
2023-05-19T03:29:44.147Z,102844.78
2023-05-19T03:32:10.690Z,102848.41
2023-05-19T03:34:37.197Z,102849.72
2023-05-19T03:37:03.827Z,102842.34
2023-05-19T03:39:30.351Z,102838.59
2023-05-19T03:41:56.847Z,102843.19
2023-05-19T03:44:23.426Z,102836.28
2023-05-19T03:46:49.967Z,102836.44
2023-05-19T03:49:16.581Z,102839.22
2023-05-19T03:51:44.266Z,102837.63
2023-05-19T03:54:10.810Z,102833.50
2023-05-19T03:56:42.177Z,102840.56
2023-05-19T03:59:10.845Z,102838.59
2023-05-19T04:01:37.453Z,102843.16
2023-05-19T04:04:04.179Z,102845.41
2023-05-19T04:06:31.084Z,102847.41
2023-05-19T04:08:57.662Z,102844.97
2023-05-19T04:11:24.246Z,102846.78
2023-05-19T04:13:51.046Z,102844.78
2023-05-19T04:16:17.769Z,102845.41
2023-05-19T04:18:46.386Z,102847.72
2023-05-19T04:21:12.990Z,102852.63
2023-05-19T04:23:39.550Z,102846.56
2023-05-19T04:26:06.879Z,102856.72
2023-05-19T04:28:36.230Z,102854.88
2023-05-19T04:31:03.576Z,102853.41
2023-05-19T04:33:30.166Z,102846.81
2023-05-19T04:35:56.935Z,102845.59
2023-05-19T04:38:23.442Z,102850.78
2023-05-19T04:40:51.987Z,102849.63
2023-05-19T04:43:19.344Z,102853.13
2023-05-19T04:45:46.549Z,102850.34
2023-05-19T04:48:14.004Z,102854.09
2023-05-19T04:50:42.241Z,102859.31
2023-05-19T04:53:12.007Z,102857.50
2023-05-19T04:55:38.819Z,102856.84
2023-05-19T04:58:05.548Z,102859.13
2023-05-19T05:00:33.028Z,102861.00
2023-05-19T05:02:59.700Z,102852.88
2023-05-19T05:05:26.292Z,102866.59
2023-05-19T05:07:54.095Z,102855.84
2023-05-19T05:10:21.807Z,102857.22
2023-05-19T05:12:48.796Z,102863.94
2023-05-19T05:15:16.037Z,102868.22
2023-05-19T05:17:43.652Z,102870.25
2023-05-19T05:20:11.773Z,102864.91
2023-05-19T05:22:41.102Z,102860.13
2023-05-19T05:25:08.601Z,102864.31
2023-05-19T05:27:35.256Z,102869.22
2023-05-19T05:30:02.086Z,102865.59
2023-05-19T05:32:28.946Z,102867.69
2023-05-19T05:34:55.626Z,102863.34
2023-05-19T05:37:22.183Z,102854.69
2023-05-19T05:39:48.792Z,102862.41
2023-05-19T05:42:16.143Z,102857.44
2023-05-19T05:44:42.742Z,102859.81
2023-05-19T05:47:09.690Z,102861.69
2023-05-19T05:49:38.191Z,102863.78
2023-05-19T05:52:06.926Z,102864.50
2023-05-19T05:54:34.069Z,102864.03
2023-05-19T05:57:02.462Z,102866.38
2023-05-19T05:59:28.999Z,102867.19
2023-05-19T06:01:55.739Z,102863.19
2023-05-19T06:04:22.323Z,102867.47
2023-05-19T06:06:48.853Z,102862.09
2023-05-19T06:09:17.872Z,102865.25
2023-05-19T06:11:44.440Z,102859.25
2023-05-19T06:14:11.034Z,102863.50
2023-05-19T06:16:37.810Z,102864.00
2023-05-19T06:19:04.563Z,102865.78
2023-05-19T06:21:31.481Z,102867.03
2023-05-19T06:23:58.068Z,102861.03
2023-05-19T06:26:24.647Z,102861.06
2023-05-19T06:28:51.395Z,102859.56
2023-05-19T06:31:18.069Z,102858.41
2023-05-19T06:33:44.677Z,102859.28
2023-05-19T06:36:12.043Z,102862.59
2023-05-19T06:38:38.628Z,102847.81
2023-05-19T06:41:05.110Z,102861.47
2023-05-19T06:43:31.787Z,102851.41
2023-05-19T06:45:58.325Z,102853.91
2023-05-19T06:48:24.987Z,102854.34
2023-05-19T06:50:52.127Z,102855.84
2023-05-19T06:53:19.913Z,102852.00
2023-05-19T06:55:58.056Z,102856.91
2023-05-19T06:58:26.657Z,102854.72
2023-05-19T07:00:53.352Z,102856.97
2023-05-19T07:03:20.066Z,102855.19
2023-05-19T07:05:46.732Z,102859.91
2023-05-19T07:08:13.254Z,102861.16
2023-05-19T07:10:39.833Z,102854.84
2023-05-19T07:13:06.522Z,102860.31
2023-05-19T07:15:33.605Z,102855.25
2023-05-19T07:18:00.343Z,102851.25
2023-05-19T07:20:27.014Z,102859.00
2023-05-19T07:22:53.602Z,102857.78
2023-05-19T07:25:20.338Z,102853.94
2023-05-19T07:27:46.867Z,102857.84
2023-05-19T07:30:13.925Z,102853.16
2023-05-19T07:32:40.570Z,102857.03
2023-05-19T07:35:07.307Z,102855.00
2023-05-19T07:37:33.906Z,102854.41
2023-05-19T07:40:00.468Z,102854.38
2023-05-19T07:42:27.041Z,102858.66
2023-05-19T07:44:53.618Z,102857.63
2023-05-19T07:47:20.259Z,102859.25
2023-05-19T07:49:49.123Z,102845.00
2023-05-19T07:52:18.304Z,102845.75
2023-05-19T07:54:45.793Z,102841.47
2023-05-19T07:57:12.514Z,102835.94
2023-05-19T07:59:39.009Z,102843.25
2023-05-19T08:02:05.764Z,102837.69
2023-05-19T08:04:32.945Z,102835.44
2023-05-19T08:07:02.160Z,102826.22
2023-05-19T08:09:28.814Z,102823.72
2023-05-19T08:11:55.466Z,102828.72
2023-05-19T08:14:22.932Z,102828.56
2023-05-19T08:16:50.146Z,102828.25
2023-05-19T08:19:16.776Z,102822.31
2023-05-19T08:21:44.759Z,102824.06
2023-05-19T08:24:11.689Z,102818.34
2023-05-19T08:26:38.337Z,102811.78
2023-05-19T08:29:04.893Z,102809.28
2023-05-19T08:31:31.751Z,102803.44
2023-05-19T08:33:58.281Z,102816.88
2023-05-19T08:36:24.873Z,102802.13
2023-05-19T08:38:51.587Z,102802.47
2023-05-19T08:41:18.300Z,102806.22
2023-05-19T08:43:45.417Z,102799.63
2023-05-19T08:46:13.836Z,102795.72
2023-05-19T08:48:42.944Z,102797.25
2023-05-19T08:51:31.984Z,102790.53
2023-05-19T08:54:09.252Z,102784.66
2023-05-19T08:56:36.739Z,102785.97
2023-05-19T08:59:04.138Z,102776.78
2023-05-19T09:01:31.416Z,102780.47
2023-05-19T09:03:58.579Z,102778.75
2023-05-19T09:06:26.507Z,102779.44
2023-05-19T09:08:53.257Z,102782.09
2023-05-19T09:11:19.828Z,102780.75
2023-05-19T09:13:46.992Z,102776.78
2023-05-19T09:16:13.593Z,102773.22
2023-05-19T09:18:40.966Z,102771.13
2023-05-19T09:21:07.997Z,102783.03
2023-05-19T09:23:34.882Z,102777.72
2023-05-19T09:26:08.379Z,102768.25
2023-05-19T09:28:37.801Z,102775.56
2023-05-19T09:31:11.218Z,102775.44
2023-05-19T09:33:39.427Z,102770.34
2023-05-19T09:36:08.319Z,102776.94
2023-05-19T09:38:36.258Z,102781.47
2023-05-19T09:41:04.560Z,102772.22
2023-05-19T09:43:33.498Z,102771.53
2023-05-19T09:46:01.674Z,102756.38
2023-05-19T09:48:28.366Z,102762.44
2023-05-19T09:50:55.076Z,102767.53
2023-05-19T09:53:22.516Z,102756.63
2023-05-19T09:55:49.960Z,102768.56
2023-05-19T09:58:18.969Z,102767.13
2023-05-19T10:00:47.296Z,102756.03
2023-05-19T10:03:14.782Z,102760.84
2023-05-19T10:05:42.075Z,102763.06
2023-05-19T10:08:10.549Z,102766.19
2023-05-19T10:10:38.701Z,102761.22
2023-05-19T10:13:06.329Z,102760.72
2023-05-19T10:15:40.740Z,102754.84
2023-05-19T10:18:17.697Z,102752.53
2023-05-19T10:20:44.330Z,102747.34
2023-05-19T10:23:10.951Z,102741.69
2023-05-19T10:25:38.585Z,102742.63
2023-05-19T10:28:14.878Z,102739.28
2023-05-19T10:30:44.832Z,102736.38
2023-05-19T10:33:15.448Z,102734.19
2023-05-19T10:35:45.387Z,102725.50
2023-05-19T10:38:42.830Z,102732.09
2023-05-19T10:41:28.166Z,102730.78
2023-05-19T10:44:02.606Z,102717.44
2023-05-19T10:46:30.643Z,102725.91
2023-05-19T10:48:57.495Z,102725.22
2023-05-19T10:51:34.647Z,102712.59
2023-05-19T10:54:10.437Z,102717.56
2023-05-19T10:56:42.320Z,102717.72
2023-05-19T10:59:33.237Z,102730.69
2023-05-19T11:02:06.986Z,102719.31
2023-05-19T11:04:51.633Z,102714.56
2023-05-19T11:07:20.453Z,102709.75
2023-05-19T11:09:53.498Z,102711.06
2023-05-19T11:12:21.969Z,102711.75
2023-05-19T11:14:48.761Z,102714.97
2023-05-19T11:17:16.291Z,102701.19
2023-05-19T11:19:54.577Z,102700.28
2023-05-19T11:22:26.202Z,102704.56
2023-05-19T11:24:55.127Z,102697.81
2023-05-19T11:27:28.336Z,102702.16
2023-05-19T11:29:57.211Z,102707.06
2023-05-19T11:32:27.442Z,102704.72
2023-05-19T11:34:55.849Z,102690.16
2023-05-19T11:37:22.616Z,102695.00
2023-05-19T11:39:49.951Z,102685.00
2023-05-19T11:42:16.607Z,102691.66
2023-05-19T11:44:46.742Z,102684.47
2023-05-19T11:47:14.457Z,102690.38
2023-05-19T11:49:59.924Z,102695.44
2023-05-19T11:52:30.454Z,102691.16
2023-05-19T11:55:01.585Z,102686.06
2023-05-19T11:57:28.261Z,102672.09
2023-05-19T11:59:56.794Z,102676.53
2023-05-19T12:02:27.995Z,102676.53
2023-05-19T12:04:54.923Z,102674.44
2023-05-19T12:07:24.998Z,102687.13
2023-05-19T12:09:52.944Z,102686.94
2023-05-19T12:12:21.194Z,102690.66
2023-05-19T12:14:52.565Z,102686.31
2023-05-19T12:17:21.211Z,102670.94
2023-05-19T12:19:50.114Z,102671.09
2023-05-19T12:22:17.598Z,102674.72
2023-05-19T12:24:46.040Z,102676.09
2023-05-19T12:27:17.001Z,102671.16
2023-05-19T12:29:43.666Z,102675.69
2023-05-19T12:32:10.425Z,102668.81
2023-05-19T12:34:38.224Z,102670.09
2023-05-19T12:37:06.002Z,102655.06
2023-05-19T12:39:33.791Z,102657.97
2023-05-19T12:42:04.516Z,102657.22
2023-05-19T12:44:33.558Z,102654.94
2023-05-19T12:47:00.598Z,102654.75
2023-05-19T12:49:27.174Z,102653.88
2023-05-19T12:51:54.409Z,102644.19
2023-05-19T12:54:22.066Z,102651.66
2023-05-19T12:56:50.664Z,102643.06
2023-05-19T12:59:37.370Z,102643.97
2023-05-19T13:02:05.323Z,102639.22
2023-05-19T13:04:32.007Z,102636.13
2023-05-19T13:06:58.540Z,102646.97
2023-05-19T13:09:25.158Z,102639.56
2023-05-19T13:11:53.957Z,102637.03
2023-05-19T13:14:20.822Z,102643.41
2023-05-19T13:16:47.498Z,102652.66
2023-05-19T13:21:51.176Z,102641.31
2023-05-19T13:24:17.703Z,102641.63
2023-05-19T13:26:45.606Z,102634.13
2023-05-19T13:29:12.225Z,102630.06
2023-05-19T13:31:38.986Z,102631.19
2023-05-19T13:34:05.637Z,102629.41
2023-05-19T13:36:33.362Z,102625.56
2023-05-19T13:39:00.994Z,102613.91
2023-05-19T13:41:29.585Z,102617.75
2023-05-19T13:43:59.643Z,102616.75
2023-05-19T13:46:40.799Z,102620.56
2023-05-19T13:49:11.034Z,102615.53
2023-05-19T13:51:37.663Z,102611.91
2023-05-19T13:54:04.709Z,102607.13
2023-05-19T13:56:31.742Z,102610.31
2023-05-19T13:58:58.343Z,102595.28
2023-05-19T14:01:25.435Z,102609.38
2023-05-19T14:03:52.569Z,102616.03
2023-05-19T14:06:19.705Z,102599.13
2023-05-19T14:08:46.427Z,102616.00
2023-05-19T14:11:21.852Z,102598.28
2023-05-19T14:13:52.530Z,102591.38
2023-05-19T14:16:20.558Z,102601.66
2023-05-19T14:18:47.373Z,102594.72
2023-05-19T14:21:14.966Z,102590.13
2023-05-19T14:23:41.676Z,102596.19
2023-05-19T14:26:08.227Z,102589.47
2023-05-19T14:28:34.756Z,102592.28
2023-05-19T14:31:01.489Z,102584.66
2023-05-19T14:33:28.280Z,102580.75
2023-05-19T14:35:56.013Z,102585.22
2023-05-19T14:38:22.701Z,102588.44
2023-05-19T14:40:49.257Z,102579.00
2023-05-19T14:43:15.929Z,102579.38
2023-05-19T14:45:42.617Z,102574.84
2023-05-19T14:48:11.031Z,102572.81
2023-05-19T14:50:38.428Z,102574.19
2023-05-19T14:53:05.366Z,102569.59
2023-05-19T14:55:32.214Z,102571.50
2023-05-19T14:57:58.784Z,102566.44
2023-05-19T15:00:28.211Z,102567.72
2023-05-19T15:02:55.136Z,102556.19
2023-05-19T15:05:24.156Z,102567.38
2023-05-19T15:07:51.281Z,102570.16
2023-05-19T15:10:20.506Z,102570.16
2023-05-19T15:12:47.080Z,102576.09
2023-05-19T15:15:15.829Z,102568.84
2023-05-19T15:17:42.718Z,102559.44
2023-05-19T15:20:09.620Z,102556.53
2023-05-19T15:22:36.448Z,102558.41
2023-05-19T15:25:03.042Z,102552.94
2023-05-19T15:27:29.586Z,102546.75
2023-05-19T15:29:56.276Z,102547.00
2023-05-19T15:32:22.890Z,102556.88
2023-05-19T15:34:49.505Z,102553.50
2023-05-19T15:37:16.539Z,102553.84
2023-05-19T15:39:43.111Z,102548.78
2023-05-19T15:42:09.668Z,102552.94
2023-05-19T15:44:36.662Z,102547.97
2023-05-19T15:47:03.311Z,102548.81
2023-05-19T15:49:29.914Z,102551.03
2023-05-19T15:51:56.498Z,102555.53
2023-05-19T15:54:23.105Z,102544.84
2023-05-19T15:56:49.740Z,102544.13
2023-05-19T15:59:16.331Z,102542.06
2023-05-19T16:01:43.014Z,102540.94
2023-05-19T16:04:09.724Z,102534.44
2023-05-19T16:06:36.345Z,102527.81
2023-05-19T16:09:03.109Z,102530.81
2023-05-19T16:11:29.791Z,102529.66
2023-05-19T16:13:56.331Z,102527.94
2023-05-19T16:16:23.033Z,102523.09
2023-05-19T16:18:49.728Z,102523.09
2023-05-19T16:21:16.302Z,102512.41
2023-05-19T16:23:42.868Z,102510.03
2023-05-19T16:26:09.410Z,102523.19
2023-05-19T16:28:35.987Z,102519.25
2023-05-19T16:31:02.534Z,102499.72
2023-05-19T16:33:30.053Z,102507.50
2023-05-19T16:35:58.787Z,102507.50
2023-05-19T16:38:26.681Z,102504.28
2023-05-19T16:40:53.366Z,102496.00
2023-05-19T16:43:19.884Z,102505.69
2023-05-19T16:45:46.574Z,102511.53
2023-05-19T16:48:13.198Z,102514.88
2023-05-19T16:50:39.910Z,102510.03
2023-05-19T16:53:06.517Z,102518.25
2023-05-19T16:55:33.049Z,102524.91
2023-05-19T16:57:59.710Z,102515.59
2023-05-19T17:00:27.370Z,102513.47
2023-05-19T17:02:54.084Z,102510.84
2023-05-19T17:05:21.126Z,102506.91
2023-05-19T17:07:47.669Z,102506.66
2023-05-19T17:10:14.435Z,102516.28
2023-05-19T17:12:41.049Z,102516.00
2023-05-19T17:15:07.983Z,102512.97
2023-05-19T17:17:34.547Z,102525.94
2023-05-19T17:20:01.386Z,102514.03
2023-05-19T17:22:29.993Z,102515.81
2023-05-19T17:24:57.433Z,102514.41
2023-05-19T17:27:23.948Z,102517.09
2023-05-19T17:29:50.523Z,102519.81
2023-05-19T17:32:17.233Z,102510.00
2023-05-19T17:34:43.848Z,102510.06
2023-05-19T17:37:10.629Z,102514.84
2023-05-19T17:39:37.204Z,102518.31
2023-05-19T17:42:03.966Z,102514.03
2023-05-19T17:44:30.487Z,102514.03
2023-05-19T17:46:57.063Z,102512.13
2023-05-19T17:49:25.631Z,102513.66
2023-05-19T17:51:52.513Z,102520.50
2023-05-19T17:54:19.438Z,102513.50
2023-05-19T17:56:46.464Z,102516.66
2023-05-19T17:59:13.188Z,102515.06
2023-05-19T18:01:40.794Z,102522.75
2023-05-19T18:04:08.156Z,102523.56
2023-05-19T18:06:37.568Z,102523.00
2023-05-19T18:09:08.895Z,102525.16
2023-05-19T18:11:36.090Z,102516.25
2023-05-19T18:14:02.735Z,102525.00
2023-05-19T18:16:29.541Z,102529.47
2023-05-19T18:18:56.182Z,102536.53
2023-05-19T18:21:24.335Z,102530.03
2023-05-19T18:23:51.465Z,102534.19
2023-05-19T18:26:17.997Z,102531.94
2023-05-19T18:28:44.716Z,102535.91
2023-05-19T18:31:17.369Z,102528.56
2023-05-19T18:33:45.886Z,102538.13
2023-05-19T18:36:13.642Z,102538.06
2023-05-19T18:38:41.071Z,102537.91
2023-05-19T18:41:08.372Z,102534.59
2023-05-19T18:43:35.020Z,102539.59
2023-05-19T18:46:01.601Z,102540.88
2023-05-19T18:48:29.475Z,102547.50
2023-05-19T18:50:57.222Z,102547.34
2023-05-19T18:53:23.804Z,102550.72
2023-05-19T18:55:50.357Z,102545.88
2023-05-19T18:58:18.289Z,102546.03
2023-05-19T19:00:44.910Z,102542.00
2023-05-19T19:03:11.925Z,102548.84
2023-05-19T19:05:38.655Z,102558.31
2023-05-19T19:08:05.680Z,102560.53
2023-05-19T19:10:34.754Z,102564.97
2023-05-19T19:13:01.549Z,102554.69
2023-05-19T19:15:28.353Z,102557.50
2023-05-19T19:17:55.134Z,102561.72
2023-05-19T19:20:21.759Z,102554.66
2023-05-19T19:22:48.335Z,102567.88
2023-05-19T19:25:14.950Z,102572.88
2023-05-19T19:27:41.536Z,102574.94
2023-05-19T19:30:08.880Z,102572.19
2023-05-19T19:32:35.554Z,102575.78
2023-05-19T19:35:02.209Z,102573.00
2023-05-19T19:37:28.735Z,102578.47
2023-05-19T19:39:55.445Z,102584.47
2023-05-19T19:42:21.960Z,102586.00
2023-05-19T19:44:48.542Z,102591.19
2023-05-19T19:47:15.125Z,102590.16
2023-05-19T19:49:42.118Z,102598.38
2023-05-19T19:52:08.635Z,102601.41
2023-05-19T19:54:35.166Z,102603.38
2023-05-19T19:57:01.739Z,102604.88
2023-05-19T19:59:28.391Z,102605.78
2023-05-19T20:01:55.002Z,102612.00
2023-05-19T20:04:21.620Z,102612.94
2023-05-19T20:06:49.625Z,102621.84
2023-05-19T20:09:16.624Z,102619.50
2023-05-19T20:11:43.596Z,102619.72
2023-05-19T20:14:10.120Z,102614.97
2023-05-19T20:16:36.704Z,102621.09
2023-05-19T20:19:03.380Z,102622.00
2023-05-19T20:21:29.945Z,102629.16
2023-05-19T20:23:56.468Z,102631.22
2023-05-19T20:26:23.046Z,102627.16
2023-05-19T20:28:49.557Z,102634.75
2023-05-19T20:31:16.100Z,102637.47
2023-05-19T20:33:42.737Z,102639.09
2023-05-19T20:36:10.942Z,102640.00
2023-05-19T20:38:37.638Z,102636.16
2023-05-19T20:41:04.149Z,102638.72
2023-05-19T20:43:32.042Z,102647.56
2023-05-19T20:45:59.650Z,102647.78
2023-05-19T20:48:26.245Z,102646.81
2023-05-19T20:50:54.135Z,102647.28
2023-05-19T20:53:21.542Z,102647.50
2023-05-19T20:55:48.441Z,102655.09
2023-05-19T20:58:15.168Z,102644.47
2023-05-19T21:00:41.729Z,102649.41
2023-05-19T21:03:08.911Z,102645.72
2023-05-19T21:05:40.616Z,102643.16
2023-05-19T21:08:12.662Z,102642.56
2023-05-19T21:10:39.409Z,102647.53
2023-05-19T21:13:06.022Z,102654.88
2023-05-19T21:15:32.550Z,102650.38
2023-05-19T21:17:59.275Z,102651.72
2023-05-19T21:20:27.409Z,102647.50
2023-05-19T21:22:53.913Z,102656.69
2023-05-19T21:25:20.613Z,102666.28
2023-05-19T21:27:47.512Z,102665.69
2023-05-19T21:30:14.496Z,102665.91
2023-05-19T21:32:41.240Z,102667.81
2023-05-19T21:35:08.217Z,102670.34
2023-05-19T21:37:34.820Z,102670.94
2023-05-19T21:40:01.590Z,102670.72
2023-05-19T21:42:28.120Z,102677.69
2023-05-19T21:44:54.767Z,102678.94
2023-05-19T21:47:24.904Z,102676.72
2023-05-19T21:49:51.401Z,102682.47
2023-05-19T21:52:19.005Z,102685.53
2023-05-19T21:54:45.780Z,102682.13
2023-05-19T21:57:12.642Z,102677.25
2023-05-19T21:59:40.640Z,102677.91
2023-05-19T22:02:07.482Z,102680.38
2023-05-19T22:04:34.145Z,102673.06
2023-05-19T22:07:01.054Z,102673.47
2023-05-19T22:09:27.666Z,102682.44
2023-05-19T22:11:55.654Z,102682.44
2023-05-19T22:14:22.272Z,102677.34
2023-05-19T22:16:49.089Z,102677.63
2023-05-19T22:19:16.380Z,102673.56
2023-05-19T22:21:42.993Z,102669.91
2023-05-19T22:24:09.625Z,102676.66
2023-05-19T22:26:36.372Z,102678.28
2023-05-19T22:29:03.463Z,102669.34
2023-05-19T22:31:29.971Z,102675.69
2023-05-19T22:33:56.830Z,102680.38
2023-05-19T22:36:23.636Z,102684.13
2023-05-19T22:38:50.393Z,102679.25
2023-05-19T22:41:16.904Z,102678.66
2023-05-19T22:43:43.783Z,102684.56
2023-05-19T22:46:10.687Z,102680.72
2023-05-19T22:48:37.291Z,102674.88
2023-05-19T22:51:04.396Z,102684.09
2023-05-19T22:53:31.144Z,102684.13
2023-05-19T22:55:57.672Z,102681.09
2023-05-19T22:58:24.228Z,102678.84
2023-05-19T23:00:50.860Z,102674.78
2023-05-19T23:03:18.239Z,102676.84
2023-05-19T23:05:44.846Z,102678.06
2023-05-19T23:08:11.405Z,102676.03
2023-05-19T23:10:38.267Z,102679.91
2023-05-19T23:13:04.824Z,102678.13
2023-05-19T23:15:31.495Z,102678.78
2023-05-19T23:17:58.310Z,102671.03
2023-05-19T23:20:25.032Z,102672.06
2023-05-19T23:22:51.861Z,102677.97
2023-05-19T23:25:18.462Z,102673.50
2023-05-19T23:27:46.563Z,102676.16
2023-05-19T23:30:13.247Z,102672.50
2023-05-19T23:32:40.897Z,102670.06
2023-05-19T23:35:18.714Z,102674.16
2023-05-19T23:37:45.310Z,102669.28
2023-05-19T23:40:12.456Z,102671.31
2023-05-19T23:42:39.406Z,102674.56
2023-05-19T23:45:06.564Z,102670.28
2023-05-19T23:47:33.156Z,102669.50
2023-05-19T23:49:59.798Z,102673.97
2023-05-19T23:52:26.396Z,102673.75
2023-05-19T23:54:52.964Z,102664.00
2023-05-19T23:57:19.527Z,102666.06
2023-05-19T23:59:46.133Z,102667.06
